createdAt,value
2023-02-16T00:01:58.872Z,40.78
2023-02-16T00:04:28.720Z,42.05
2023-02-16T00:06:55.984Z,38.72
2023-02-16T00:09:23.547Z,40.42
2023-02-16T00:12:11.158Z,40.45
2023-02-16T00:14:39.435Z,38.00
2023-02-16T00:17:06.848Z,38.80
2023-02-16T00:19:37.122Z,41.72
2023-02-16T00:22:05.455Z,38.88
2023-02-16T00:24:32.023Z,43.63
2023-02-16T00:26:59.845Z,45.03
2023-02-16T00:29:34.663Z,46.80
2023-02-16T00:32:02.968Z,50.97
2023-02-16T00:34:32.595Z,57.05
2023-02-16T00:37:01.671Z,53.03
2023-02-16T00:39:28.856Z,59.63
2023-02-16T00:41:58.948Z,49.20
2023-02-16T00:44:41.286Z,50.95
2023-02-16T00:47:27.745Z,51.63
2023-02-16T00:49:54.907Z,49.97
2023-02-16T00:52:31.063Z,53.95
2023-02-16T00:54:58.513Z,54.78
2023-02-16T00:57:27.109Z,52.50
2023-02-16T01:00:24.295Z,58.63
2023-02-16T01:02:53.206Z,58.97
2023-02-16T01:05:19.755Z,66.43
2023-02-16T01:08:05.101Z,56.42
2023-02-16T01:10:51.552Z,49.60
2023-02-16T01:13:18.323Z,60.13
2023-02-16T01:15:45.568Z,55.22
2023-02-16T01:18:15.194Z,57.70
2023-02-16T01:20:41.681Z,61.92
2023-02-16T01:23:08.162Z,64.30
2023-02-16T01:25:36.192Z,55.33
2023-02-16T01:28:03.019Z,55.63
2023-02-16T01:30:29.764Z,55.78
2023-02-16T01:32:56.469Z,55.13
2023-02-16T01:35:28.300Z,54.72
2023-02-16T01:37:55.025Z,52.22
2023-02-16T01:40:33.797Z,52.35
2023-02-16T01:43:06.253Z,52.47
2023-02-16T01:45:35.623Z,51.50
2023-02-16T01:48:11.945Z,53.42
2023-02-16T01:51:16.632Z,45.20
2023-02-16T01:53:45.337Z,46.90
2023-02-16T01:56:47.642Z,43.28
2023-02-16T01:59:29.225Z,50.30
2023-02-16T02:01:59.484Z,49.28
2023-02-16T02:04:54.526Z,49.35
2023-02-16T02:07:58.204Z,43.65
2023-02-16T02:11:02.391Z,42.65
2023-02-16T02:13:37.910Z,47.15
2023-02-16T02:16:05.667Z,45.55
2023-02-16T02:18:32.432Z,45.30
2023-02-16T02:21:27.372Z,43.20
2023-02-16T02:24:16.594Z,47.97
2023-02-16T02:27:07.732Z,50.35
2023-02-16T02:29:46.127Z,50.17
2023-02-16T02:32:30.651Z,44.15
2023-02-16T02:35:30.902Z,43.83
2023-02-16T02:38:08.405Z,48.65
2023-02-16T02:41:10.291Z,54.40
2023-02-16T02:43:50.096Z,48.60
2023-02-16T02:46:24.796Z,49.17
2023-02-16T02:48:51.506Z,46.47
2023-02-16T02:51:30.625Z,50.25
2023-02-16T02:54:18.152Z,51.78
2023-02-16T02:57:08.573Z,47.55
2023-02-16T02:59:55.939Z,51.97
2023-02-16T03:02:24.170Z,45.40
2023-02-16T03:04:53.731Z,51.97
2023-02-16T03:07:43.969Z,48.20
2023-02-16T03:10:29.111Z,55.10
2023-02-16T03:12:57.800Z,48.78
2023-02-16T03:15:25.876Z,47.97
2023-02-16T03:18:13.732Z,52.03
2023-02-16T03:21:01.408Z,48.38
2023-02-16T03:23:47.849Z,48.25
2023-02-16T03:26:34.084Z,46.97
2023-02-16T03:29:21.479Z,47.63
2023-02-16T03:31:50.130Z,50.63
2023-02-16T03:34:18.339Z,50.28
2023-02-16T03:36:48.930Z,47.45
2023-02-16T03:39:16.322Z,48.47
2023-02-16T03:41:49.397Z,52.20
2023-02-16T03:44:16.135Z,48.20
2023-02-16T03:46:42.719Z,51.28
2023-02-16T03:49:09.249Z,51.50
2023-02-16T03:51:35.797Z,48.25
2023-02-16T03:54:02.300Z,53.15
2023-02-16T03:56:28.887Z,48.40
2023-02-16T03:58:55.353Z,55.80
2023-02-16T04:01:21.980Z,49.58
2023-02-16T04:03:48.491Z,50.70
2023-02-16T04:06:15.324Z,50.53
2023-02-16T04:08:41.804Z,51.97
2023-02-16T04:11:26.715Z,50.53
2023-02-16T04:13:53.606Z,49.88
2023-02-16T04:16:20.136Z,51.85
2023-02-16T04:18:46.727Z,49.28
2023-02-16T04:21:13.247Z,50.00
2023-02-16T04:23:39.718Z,48.60
2023-02-16T04:26:06.192Z,43.00
2023-02-16T04:28:32.767Z,51.95
2023-02-16T04:30:59.307Z,54.25
2023-02-16T04:33:25.823Z,47.35
2023-02-16T04:35:52.308Z,47.58
2023-02-16T04:38:18.780Z,49.67
2023-02-16T04:40:45.330Z,44.70
2023-02-16T04:43:11.799Z,47.97
2023-02-16T04:45:38.281Z,47.75
2023-02-16T04:48:05.104Z,48.88
2023-02-16T04:50:31.874Z,52.25
2023-02-16T04:52:58.906Z,47.00
2023-02-16T04:55:25.521Z,54.15
2023-02-16T04:57:52.112Z,44.25
2023-02-16T05:00:19.161Z,57.28
2023-02-16T05:02:45.954Z,49.33
2023-02-16T05:05:12.421Z,53.58
2023-02-16T05:07:38.960Z,47.92
2023-02-16T05:10:06.162Z,50.47
2023-02-16T05:12:51.145Z,54.30
2023-02-16T05:15:17.646Z,49.03
2023-02-16T05:17:44.214Z,48.05
2023-02-16T05:20:11.823Z,46.60
2023-02-16T05:22:39.358Z,49.83
2023-02-16T05:25:07.355Z,50.20
2023-02-16T05:27:33.910Z,45.28
2023-02-16T05:30:00.503Z,51.45
2023-02-16T05:32:27.158Z,45.58
2023-02-16T05:34:53.650Z,47.20
2023-02-16T05:37:20.265Z,51.47
2023-02-16T05:39:46.944Z,50.70
2023-02-16T05:42:13.541Z,51.47
2023-02-16T05:44:40.116Z,52.33
2023-02-16T05:47:06.683Z,49.88
2023-02-16T05:49:33.130Z,52.40
2023-02-16T05:51:59.627Z,52.90
2023-02-16T05:54:27.838Z,55.33
2023-02-16T05:56:54.666Z,54.25
2023-02-16T05:59:21.189Z,48.75
2023-02-16T06:01:51.296Z,55.05
2023-02-16T06:04:18.341Z,54.58
2023-02-16T06:06:44.908Z,53.20
2023-02-16T06:09:11.824Z,48.50
2023-02-16T06:11:38.442Z,54.60
2023-02-16T06:14:06.034Z,52.67
2023-02-16T06:16:33.884Z,58.63
2023-02-16T06:19:01.481Z,51.95
2023-02-16T06:21:28.889Z,53.00
2023-02-16T06:23:56.002Z,53.45
2023-02-16T06:26:22.880Z,53.45
2023-02-16T06:28:49.613Z,50.05
2023-02-16T06:31:16.314Z,50.08
2023-02-16T06:33:43.395Z,58.15
2023-02-16T06:36:10.636Z,54.33
2023-02-16T06:38:37.291Z,51.15
2023-02-16T06:41:04.515Z,52.08
2023-02-16T06:43:31.198Z,50.63
2023-02-16T06:45:57.785Z,56.65
2023-02-16T06:48:24.475Z,65.22
2023-02-16T06:50:51.495Z,57.38
2023-02-16T06:53:18.313Z,60.97
2023-02-16T06:55:44.845Z,64.18
2023-02-16T06:58:11.687Z,54.90
2023-02-16T07:00:38.826Z,58.58
2023-02-16T07:03:05.512Z,62.75
2023-02-16T07:05:31.992Z,71.38
2023-02-16T07:07:58.511Z,58.33
2023-02-16T07:10:24.996Z,63.92
2023-02-16T07:12:51.467Z,60.85
2023-02-16T07:15:18.141Z,58.22
2023-02-16T07:17:44.659Z,40.90
2023-02-16T07:20:12.783Z,54.80
2023-02-16T07:22:39.543Z,53.50
2023-02-16T07:25:06.411Z,54.70
2023-02-16T07:27:32.908Z,55.35
2023-02-16T07:29:59.405Z,50.10
2023-02-16T07:32:26.060Z,48.13
2023-02-16T07:34:52.571Z,58.92
2023-02-16T07:37:19.547Z,52.28
2023-02-16T07:39:46.019Z,53.25
2023-02-16T07:42:12.479Z,33.25
2023-02-16T07:44:38.948Z,50.78
2023-02-16T07:47:05.489Z,47.83
2023-02-16T07:49:31.965Z,45.03
2023-02-16T07:51:58.461Z,52.20
2023-02-16T07:54:24.966Z,24.58
2023-02-16T07:56:51.474Z,6.93
2023-02-16T07:59:17.976Z,36.33
2023-02-16T08:01:44.453Z,43.13
2023-02-16T08:04:10.946Z,7.43
2023-02-16T08:06:37.433Z,41.75
2023-02-16T08:09:04.466Z,36.60
2023-02-16T08:11:31.024Z,7.60
2023-02-16T08:14:00.138Z,37.15
2023-02-16T08:16:28.581Z,48.72
2023-02-16T08:18:57.256Z,38.15
2023-02-16T08:21:29.909Z,33.70
2023-02-16T08:24:05.235Z,47.45
2023-02-16T08:29:10.136Z,33.90
2023-02-16T08:31:38.385Z,43.47
2023-02-16T08:34:05.985Z,37.13
2023-02-16T08:36:35.338Z,21.98
2023-02-16T08:39:13.662Z,17.50
2023-02-16T08:41:40.888Z,46.45
2023-02-16T08:44:09.113Z,30.20
2023-02-16T08:46:39.175Z,39.72
2023-02-16T08:49:07.423Z,29.70
2023-02-16T08:51:36.244Z,30.65
2023-02-16T08:54:05.980Z,45.03
2023-02-16T08:56:35.416Z,46.88
2023-02-16T08:59:02.089Z,46.22
2023-02-16T09:01:28.816Z,42.75
2023-02-16T09:03:55.634Z,47.78
2023-02-16T09:06:23.065Z,42.72
2023-02-16T09:08:55.085Z,41.70
2023-02-16T09:11:23.167Z,12.32
2023-02-16T09:13:50.507Z,42.03
2023-02-16T09:16:20.179Z,39.17
2023-02-16T09:18:47.665Z,42.75
2023-02-16T09:21:16.694Z,44.15
2023-02-16T09:23:48.470Z,18.45
2023-02-16T09:26:16.699Z,39.92
2023-02-16T09:28:44.795Z,39.25
2023-02-16T09:31:11.634Z,44.30
2023-02-16T09:33:40.307Z,42.08
2023-02-16T09:36:09.489Z,29.85
2023-02-16T09:38:36.925Z,33.78
2023-02-16T09:41:27.844Z,35.83
2023-02-16T09:43:54.222Z,5.00
2023-02-16T09:46:23.223Z,23.60
2023-02-16T09:48:50.982Z,23.55
2023-02-16T09:51:33.817Z,38.78
2023-02-16T09:54:16.875Z,17.20
2023-02-16T09:57:08.130Z,31.73
2023-02-16T09:59:48.270Z,31.30
2023-02-16T10:02:39.886Z,36.17
2023-02-16T10:05:30.171Z,36.22
2023-02-16T10:08:00.158Z,25.77
2023-02-16T10:10:35.653Z,25.30
2023-02-16T10:13:09.336Z,38.35
2023-02-16T10:15:37.873Z,28.00
2023-02-16T10:18:29.909Z,27.45
2023-02-16T10:21:00.907Z,35.70
2023-02-16T10:23:42.701Z,37.15
2023-02-16T10:26:53.290Z,33.53
2023-02-16T10:29:23.325Z,31.58
2023-02-16T10:31:56.645Z,37.03
2023-02-16T10:34:29.176Z,14.73
2023-02-16T10:37:17.398Z,21.60
2023-02-16T10:39:52.913Z,25.13
2023-02-16T10:42:47.486Z,32.22
2023-02-16T10:45:14.059Z,43.10
2023-02-16T10:47:43.531Z,29.35
2023-02-16T10:50:27.571Z,29.48
2023-02-16T10:53:01.743Z,37.15
2023-02-16T10:55:28.361Z,17.67
2023-02-16T10:57:58.869Z,27.42
2023-02-16T11:00:54.584Z,31.95
2023-02-16T11:03:29.103Z,17.17
2023-02-16T11:05:56.000Z,35.73
2023-02-16T11:08:24.167Z,30.40
2023-02-16T11:10:53.000Z,23.85
2023-02-16T11:13:33.965Z,27.23
2023-02-16T11:16:06.983Z,24.10
2023-02-16T11:18:39.067Z,26.58
2023-02-16T11:21:08.234Z,37.95
2023-02-16T11:23:35.998Z,36.85
2023-02-16T11:26:14.658Z,37.38
2023-02-16T11:28:47.835Z,19.13
2023-02-16T11:31:36.357Z,32.10
2023-02-16T11:34:28.755Z,27.38
2023-02-16T11:37:27.744Z,26.70
2023-02-16T11:40:28.924Z,17.70
2023-02-16T11:42:58.664Z,25.08
2023-02-16T11:45:31.623Z,37.67
2023-02-16T11:48:03.269Z,12.60
2023-02-16T11:50:35.569Z,37.05
2023-02-16T11:53:11.380Z,27.27
2023-02-16T11:55:44.396Z,27.40
2023-02-16T11:58:15.409Z,39.58
2023-02-16T12:00:58.469Z,28.08
2023-02-16T12:03:47.682Z,25.92
2023-02-16T12:06:39.045Z,24.95
2023-02-16T12:09:31.168Z,32.15
2023-02-16T12:12:14.751Z,32.22
2023-02-16T12:15:03.300Z,22.15
2023-02-16T12:17:40.027Z,26.83
2023-02-16T12:20:12.549Z,35.80
2023-02-16T12:22:51.081Z,42.15
2023-02-16T12:25:30.126Z,26.42
2023-02-16T12:28:09.628Z,31.40
2023-02-16T12:30:59.985Z,42.00
2023-02-16T12:33:47.966Z,33.30
2023-02-16T12:36:47.933Z,31.40
2023-02-16T12:39:43.303Z,24.25
2023-02-16T12:42:32.285Z,23.40
2023-02-16T12:45:03.480Z,23.42
2023-02-16T12:47:35.018Z,32.85
2023-02-16T12:50:04.761Z,28.67
2023-02-16T12:52:37.595Z,36.22
2023-02-16T12:55:41.587Z,34.75
2023-02-16T12:58:08.025Z,48.80
2023-02-16T13:01:00.069Z,25.80
2023-02-16T13:03:42.211Z,34.88
2023-02-16T13:06:21.578Z,26.55
2023-02-16T13:09:26.279Z,43.40
2023-02-16T13:12:17.214Z,29.45
2023-02-16T13:14:48.966Z,35.50
2023-02-16T13:17:21.162Z,38.72
2023-02-16T13:19:47.817Z,26.05
2023-02-16T13:22:41.768Z,41.55
2023-02-16T13:25:22.088Z,40.03
2023-02-16T13:28:17.731Z,21.17
2023-02-16T13:31:12.414Z,39.35
2023-02-16T13:33:48.617Z,21.20
2023-02-16T13:36:21.735Z,48.15
2023-02-16T13:39:10.247Z,38.95
2023-02-16T13:42:15.373Z,51.47
2023-02-16T13:44:52.275Z,54.00
2023-02-16T13:47:26.779Z,37.95
2023-02-16T13:50:05.541Z,50.50
2023-02-16T13:52:36.097Z,48.67
2023-02-16T13:55:05.952Z,43.70
2023-02-16T13:57:50.822Z,29.10
2023-02-16T14:00:29.018Z,6.15
2023-02-16T14:03:03.331Z,38.30
2023-02-16T14:05:34.180Z,43.83
2023-02-16T14:08:22.735Z,41.40
2023-02-16T14:10:55.385Z,24.95
2023-02-16T14:13:34.389Z,16.52
2023-02-16T14:16:20.774Z,38.50
2023-02-16T14:18:56.905Z,27.75
2023-02-16T14:21:35.476Z,30.00
2023-02-16T14:24:03.440Z,39.92
2023-02-16T14:26:31.961Z,40.92
2023-02-16T14:29:16.033Z,29.85
2023-02-16T14:31:47.717Z,53.33
2023-02-16T14:34:36.568Z,23.95
2023-02-16T14:37:15.037Z,36.47
2023-02-16T14:40:04.068Z,26.90
2023-02-16T14:42:34.801Z,12.73
2023-02-16T14:45:35.908Z,58.67
2023-02-16T14:48:34.276Z,52.38
2023-02-16T14:51:22.181Z,29.77
2023-02-16T14:54:07.379Z,41.25
2023-02-16T14:56:36.943Z,42.85
2023-02-16T14:59:13.330Z,23.33
2023-02-16T15:01:44.993Z,47.17
2023-02-16T15:04:11.830Z,48.38
2023-02-16T15:06:44.753Z,46.83
2023-02-16T15:09:23.907Z,55.58
2023-02-16T15:12:12.805Z,52.05
2023-02-16T15:14:48.033Z,56.53
2023-02-16T15:17:39.366Z,39.22
2023-02-16T15:20:29.805Z,63.88
2023-02-16T15:22:58.959Z,53.28
2023-02-16T15:25:29.499Z,63.13
2023-02-16T15:28:00.237Z,62.45
2023-02-16T15:30:39.228Z,65.60
2023-02-16T15:33:14.169Z,55.80
2023-02-16T15:35:43.504Z,57.45
2023-02-16T15:38:12.861Z,46.63
2023-02-16T15:40:40.020Z,55.30
2023-02-16T15:43:19.900Z,73.50
2023-02-16T15:45:52.645Z,51.90
2023-02-16T15:48:32.413Z,67.72
2023-02-16T15:51:20.813Z,50.90
2023-02-16T15:53:51.701Z,57.67
2023-02-16T15:56:44.861Z,32.88
2023-02-16T15:59:41.014Z,24.48
2023-02-16T16:04:46.977Z,40.22
2023-02-16T16:07:17.381Z,42.50
2023-02-16T16:09:45.756Z,48.33
2023-02-16T16:12:16.297Z,46.08
2023-02-16T16:14:49.604Z,34.85
2023-02-16T16:17:20.783Z,47.42
2023-02-16T16:19:47.368Z,46.55
2023-02-16T16:22:31.823Z,48.53
2023-02-16T16:24:59.073Z,47.95
2023-02-16T16:27:36.581Z,44.83
2023-02-16T16:30:26.096Z,51.13
2023-02-16T16:33:07.735Z,46.97
2023-02-16T16:35:37.219Z,46.75
2023-02-16T16:38:05.638Z,33.92
2023-02-16T16:40:37.566Z,50.30
2023-02-16T16:43:06.883Z,23.35
2023-02-16T16:45:36.436Z,29.15
2023-02-16T16:48:11.233Z,34.92
2023-02-16T16:50:39.870Z,43.85
2023-02-16T16:53:31.680Z,47.25
2023-02-16T16:55:59.216Z,31.58
2023-02-16T16:58:27.104Z,37.38
2023-02-16T17:00:53.587Z,38.63
2023-02-16T17:03:20.588Z,39.88
2023-02-16T17:05:47.429Z,37.90
2023-02-16T17:08:13.914Z,40.97
2023-02-16T17:10:41.571Z,41.67
2023-02-16T17:13:15.020Z,31.60
2023-02-16T17:16:04.577Z,43.55
2023-02-16T17:18:31.259Z,27.23
2023-02-16T17:20:58.227Z,40.80
2023-02-16T17:23:24.749Z,33.30
2023-02-16T17:25:51.562Z,45.70
2023-02-16T17:28:21.481Z,41.83
2023-02-16T17:30:48.284Z,23.50
2023-02-16T17:33:14.850Z,36.63
2023-02-16T17:35:43.555Z,45.63
2023-02-16T17:38:13.994Z,43.63
2023-02-16T17:40:41.350Z,34.80
2023-02-16T17:43:13.083Z,19.25
2023-02-16T17:45:39.687Z,17.00
2023-02-16T17:48:06.280Z,25.63
2023-02-16T17:50:33.028Z,29.85
2023-02-16T17:52:59.914Z,29.98
2023-02-16T17:55:26.439Z,12.50
2023-02-16T17:57:53.015Z,18.98
2023-02-16T18:00:20.728Z,26.73
2023-02-16T18:02:47.518Z,19.60
2023-02-16T18:05:14.122Z,15.73
2023-02-16T18:07:40.570Z,26.75
2023-02-16T18:10:11.335Z,27.88
2023-02-16T18:12:37.802Z,14.10
2023-02-16T18:15:04.441Z,9.77
2023-02-16T18:17:30.894Z,12.50
2023-02-16T18:19:57.336Z,23.83
2023-02-16T18:22:23.805Z,22.20
2023-02-16T18:24:50.880Z,14.80
2023-02-16T18:27:18.079Z,26.92
2023-02-16T18:29:44.522Z,16.30
2023-02-16T18:32:11.024Z,19.02
2023-02-16T18:34:37.593Z,21.48
2023-02-16T18:37:04.182Z,23.65
2023-02-16T18:39:30.662Z,25.67
2023-02-16T18:41:57.121Z,30.25
2023-02-16T18:44:23.564Z,27.67
2023-02-16T18:46:50.078Z,28.63
2023-02-16T18:49:16.527Z,25.77
2023-02-16T18:51:42.990Z,23.70
2023-02-16T18:54:09.430Z,19.40
2023-02-16T18:56:37.359Z,17.92
2023-02-16T18:59:04.271Z,24.23
2023-02-16T19:01:32.418Z,11.73
2023-02-16T19:04:00.481Z,23.60
2023-02-16T19:06:27.085Z,24.80
2023-02-16T19:08:53.705Z,14.77
2023-02-16T19:11:21.161Z,16.83
2023-02-16T19:13:48.203Z,12.02
2023-02-16T19:16:15.808Z,26.27
2023-02-16T19:18:42.399Z,15.73
2023-02-16T19:21:11.264Z,24.52
2023-02-16T19:23:38.003Z,21.40
2023-02-16T19:26:11.185Z,25.55
2023-02-16T19:28:39.122Z,18.95
2023-02-16T19:31:08.801Z,16.55
2023-02-16T19:33:35.616Z,19.67
2023-02-16T19:36:07.438Z,24.63
2023-02-16T19:38:34.099Z,27.05
2023-02-16T19:41:00.813Z,13.38
2023-02-16T19:43:27.288Z,15.23
2023-02-16T19:45:54.353Z,26.35
2023-02-16T19:48:20.898Z,14.65
2023-02-16T19:50:47.429Z,28.23
2023-02-16T19:53:16.989Z,18.23
2023-02-16T19:55:43.670Z,25.00
2023-02-16T19:58:10.221Z,30.08
2023-02-16T20:00:37.886Z,28.15
2023-02-16T20:03:04.617Z,16.10
2023-02-16T20:05:31.067Z,24.98
2023-02-16T20:07:57.677Z,14.90
2023-02-16T20:10:24.297Z,19.85
2023-02-16T20:12:50.752Z,26.75
2023-02-16T20:15:17.956Z,16.55
2023-02-16T20:17:44.422Z,25.65
2023-02-16T20:20:11.320Z,27.25
2023-02-16T20:22:38.025Z,23.13
2023-02-16T20:25:04.892Z,34.65
2023-02-16T20:27:31.366Z,24.77
2023-02-16T20:30:00.691Z,17.90
2023-02-16T20:32:28.416Z,17.77
2023-02-16T20:34:54.924Z,18.15
2023-02-16T20:37:21.797Z,19.92
2023-02-16T20:39:48.354Z,26.95
2023-02-16T20:42:14.908Z,17.83
2023-02-16T20:44:41.416Z,18.30
2023-02-16T20:47:10.140Z,20.88
2023-02-16T20:49:36.691Z,26.20
2023-02-16T20:52:03.374Z,17.77
2023-02-16T20:54:29.900Z,17.27
2023-02-16T20:56:56.410Z,33.70
2023-02-16T20:59:22.920Z,27.67
2023-02-16T21:01:52.188Z,24.95
2023-02-16T21:04:19.390Z,22.95
2023-02-16T21:06:46.512Z,23.35
2023-02-16T21:09:14.271Z,22.15
2023-02-16T21:11:46.636Z,25.10
2023-02-16T21:14:13.432Z,20.67
2023-02-16T21:16:40.999Z,23.77
2023-02-16T21:19:17.504Z,24.90
2023-02-16T21:21:49.344Z,17.80
2023-02-16T21:24:15.817Z,29.67
2023-02-16T21:26:42.395Z,16.58
2023-02-16T21:29:08.891Z,32.60
2023-02-16T21:31:35.493Z,38.47
2023-02-16T21:34:01.976Z,29.02
2023-02-16T21:36:28.549Z,31.20
2023-02-16T21:38:55.216Z,27.52
2023-02-16T21:41:25.310Z,32.78
2023-02-16T21:44:02.522Z,31.10
2023-02-16T21:46:31.774Z,36.80
2023-02-16T21:49:01.746Z,23.85
2023-02-16T21:51:33.453Z,25.75
2023-02-16T21:54:00.713Z,23.42
2023-02-16T21:56:35.295Z,20.88
2023-02-16T21:59:02.711Z,31.38
2023-02-16T22:01:31.962Z,43.03
2023-02-16T22:04:00.508Z,29.35
2023-02-16T22:06:32.265Z,35.28
2023-02-16T22:09:00.058Z,36.08
2023-02-16T22:11:26.659Z,37.53
2023-02-16T22:13:58.578Z,21.35
2023-02-16T22:16:26.504Z,41.97
2023-02-16T22:19:07.198Z,22.52
2023-02-16T22:21:36.909Z,36.42
2023-02-16T22:24:04.405Z,34.47
2023-02-16T22:26:33.572Z,29.27
2023-02-16T22:29:03.009Z,24.25
2023-02-16T22:31:29.897Z,23.75
2023-02-16T22:34:01.656Z,38.42
2023-02-16T22:36:28.988Z,34.15
2023-02-16T22:38:55.493Z,32.88
2023-02-16T22:41:22.963Z,32.60
2023-02-16T22:43:54.408Z,24.77
2023-02-16T22:46:22.053Z,24.90
2023-02-16T22:48:48.582Z,34.13
2023-02-16T22:51:16.463Z,27.83
2023-02-16T22:53:43.599Z,17.23
2023-02-16T22:56:13.615Z,52.88
2023-02-16T22:58:40.292Z,34.33
2023-02-16T23:01:15.587Z,27.38
2023-02-16T23:06:13.573Z,33.25
2023-02-16T23:08:40.900Z,43.25
2023-02-16T23:11:07.370Z,30.77
2023-02-16T23:13:34.698Z,28.35
2023-02-16T23:16:11.635Z,38.75
2023-02-16T23:18:38.549Z,34.88
2023-02-16T23:21:29.808Z,30.80
2023-02-16T23:23:57.174Z,16.98
2023-02-16T23:26:25.623Z,21.02
2023-02-16T23:28:54.250Z,28.80
2023-02-16T23:31:21.996Z,29.58
2023-02-16T23:33:49.098Z,43.42
2023-02-16T23:36:15.683Z,46.30
2023-02-16T23:38:42.158Z,47.05
2023-02-16T23:41:16.096Z,32.97
2023-02-16T23:43:43.050Z,12.88
2023-02-16T23:46:10.433Z,38.33
2023-02-16T23:48:38.417Z,35.40
2023-02-16T23:51:05.237Z,17.40
2023-02-16T23:53:31.739Z,25.40
2023-02-16T23:56:03.227Z,45.38
2023-02-16T23:58:32.797Z,18.73
